Time;durP1;ratioP1;P1;durP2;ratioP2;P2;SDS_P1;SDS_P2;PMS_P1;PMS_P2;Temp;Humidity;BMP_temperature;BMP_pressure;BME280_temperature;BME280_humidity;BME280_pressure;Samples;Min_cycle;Max_cycle;Signal;HPM_P1;HPM_P2
2022/05/26 00:01:11;;;;;;;4.28;2.08;;;12.10;99.90;;;;;;5108148;28;20027;-68
2022/05/26 00:03:40;;;;;;;5.70;0.90;;;12.00;99.90;;;;;;5107831;28;20483;-68
2022/05/26 00:06:07;;;;;;;4.88;0.85;;;12.00;99.90;;;;;;5108944;28;20027;-68
2022/05/26 00:08:34;;;;;;;1.70;1.00;;;12.10;99.90;;;;;;5111138;28;20111;-68
2022/05/26 00:11:00;;;;;;;5.28;1.13;;;12.10;99.90;;;;;;5111154;28;20115;-68
2022/05/26 00:13:25;;;;;;;5.55;1.25;;;12.00;99.90;;;;;;5110692;28;20089;-68
2022/05/26 00:15:52;;;;;;;7.90;0.93;;;12.00;99.90;;;;;;5110971;28;20054;-68
2022/05/26 00:18:18;;;;;;;3.10;1.00;;;12.00;99.90;;;;;;5110949;28;20028;-68
2022/05/26 00:20:44;;;;;;;5.03;1.25;;;12.10;99.90;;;;;;5092264;28;20097;-68
2022/05/26 00:23:10;;;;;;;6.80;1.30;;;12.10;99.90;;;;;;5108194;28;20441;-68
2022/05/26 00:25:36;;;;;;;4.68;1.65;;;12.00;99.90;;;;;;5108023;28;20043;-68
2022/05/26 00:28:02;;;;;;;2.45;0.93;;;12.10;99.90;;;;;;5109413;28;20020;-68
2022/05/26 00:30:27;;;;;;;1.67;1.02;;;12.10;99.90;;;;;;5109900;28;20048;-68
2022/05/26 00:32:53;;;;;;;1.98;0.63;;;12.10;99.90;;;;;;5110490;28;20061;-68
2022/05/26 00:35:19;;;;;;;3.95;0.90;;;12.10;99.90;;;;;;5110395;28;20080;-68
2022/05/26 00:37:44;;;;;;;1.98;0.88;;;12.00;99.90;;;;;;5110766;28;20044;-68
2022/05/26 00:40:12;;;;;;;3.30;0.90;;;12.10;99.90;;;;;;5110987;28;20408;-68
2022/05/26 00:42:38;;;;;;;4.72;1.13;;;12.10;99.90;;;;;;5092278;28;20096;-68
2022/05/26 00:45:05;;;;;;;5.97;0.95;;;12.20;99.90;;;;;;5110260;28;20476;-68
2022/05/26 00:47:35;;;;;;;3.78;1.35;;;12.20;99.90;;;;;;5110362;28;20027;-68
2022/05/26 00:50:21;;;;;;;3.70;1.10;;;12.10;99.90;;;;;;5110535;28;20081;-68
2022/05/26 00:52:56;;;;;;;3.00;0.98;;;12.20;99.90;;;;;;5110064;28;20055;-68
2022/05/26 00:55:24;;;;;;;3.83;1.10;;;12.10;99.90;;;;;;5107303;28;20043;-68
2022/05/26 00:57:54;;;;;;;5.72;0.93;;;12.10;99.90;;;;;;5107401;28;20063;-68
2022/05/26 01:00:23;;;;;;;9.13;1.30;;;12.10;99.90;;;;;;5107844;28;20111;-68
2022/05/26 01:03:06;;;;;;;9.38;1.40;;;12.10;99.90;;;;;;5108392;28;20027;-68
2022/05/26 01:05:41;;;;;;;6.95;1.00;;;12.10;99.90;;;;;;5109587;28;20020;-68
2022/05/26 01:08:14;;;;;;;2.75;0.70;;;12.00;99.90;;;;;;5113717;28;20027;-68
2022/05/26 01:10:40;;;;;;;5.25;1.52;;;12.10;99.90;;;;;;5114271;28;20031;-68
2022/05/26 01:13:06;;;;;;;4.55;1.05;;;12.00;99.90;;;;;;5114359;28;20019;-67
2022/05/26 01:15:36;;;;;;;2.75;0.70;;;11.90;99.90;;;;;;5114174;28;20020;-68
2022/05/26 01:18:18;;;;;;;4.28;1.38;;;12.00;99.90;;;;;;5114090;28;20036;-68
2022/05/26 01:21:06;;;;;;;4.57;0.98;;;11.90;99.90;;;;;;5113614;28;20039;-68
2022/05/26 01:23:44;;;;;;;4.22;1.45;;;12.00;99.90;;;;;;5114198;28;20034;-69
2022/05/26 01:26:27;;;;;;;4.72;1.17;;;11.90;99.90;;;;;;5113925;28;20484;-67
2022/05/26 01:29:31;;;;;;;10.52;1.67;;;11.80;99.90;;;;;;5113741;28;20494;-67
2022/05/26 01:32:26;;;;;;;2.92;0.93;;;11.80;99.90;;;;;;5114009;28;20020;-67
2022/05/26 01:34:54;;;;;;;2.70;0.95;;;11.80;99.90;;;;;;5040538;28;20437;-66
2022/05/26 01:37:30;;;;;;;5.53;1.15;;;11.80;99.90;;;;;;5113526;28;20027;-67
2022/05/26 01:40:19;;;;;;;2.55;0.75;;;11.80;99.90;;;;;;5113752;28;20034;-67
2022/05/26 01:43:22;;;;;;;2.45;1.20;;;11.80;99.90;;;;;;5073394;28;20040;-66
2022/05/26 01:46:06;;;;;;;2.67;0.90;;;11.80;99.90;;;;;;5112508;28;20026;-67
2022/05/26 01:49:16;;;;;;;6.00;1.08;;;11.80;99.90;;;;;;5110327;28;20045;-67
2022/05/26 01:52:03;;;;;;;1.92;1.02;;;11.90;99.90;;;;;;5090832;28;20495;-66
2022/05/26 01:54:31;;;;;;;4.32;0.93;;;11.80;99.90;;;;;;5113784;28;20040;-67
2022/05/26 01:57:03;;;;;;;4.50;1.10;;;11.90;99.90;;;;;;5113498;28;20510;-66
2022/05/26 01:59:37;;;;;;;4.50;1.13;;;11.90;99.90;;;;;;5113329;28;20085;-67
2022/05/26 02:02:07;;;;;;;3.63;1.20;;;11.90;99.90;;;;;;5113351;28;20031;-66
2022/05/26 02:04:58;;;;;;;1.15;0.75;;;11.90;99.90;;;;;;5113024;28;20116;-67
2022/05/26 02:07:36;;;;;;;4.07;1.15;;;11.80;99.90;;;;;;5113420;28;20375;-67
2022/05/26 02:10:05;;;;;;;4.30;1.00;;;11.80;99.90;;;;;;5113526;28;20100;-67
2022/05/26 02:12:36;;;;;;;1.02;0.80;;;11.80;99.90;;;;;;5113033;28;20384;-66
2022/05/26 02:15:11;;;;;;;4.22;1.10;;;11.70;99.90;;;;;;5112812;28;20016;-67
2022/05/26 02:17:47;;;;;;;1.75;0.90;;;11.70;99.90;;;;;;5112864;28;20157;-67
2022/05/26 02:20:24;;;;;;;3.42;0.77;;;11.60;99.90;;;;;;5112460;28;20031;-67
2022/05/26 02:23:34;;;;;;;2.85;1.00;;;11.70;99.90;;;;;;5094446;28;20023;-67
2022/05/26 02:26:01;;;;;;;3.45;1.27;;;11.70;99.90;;;;;;5074429;28;20425;-67
2022/05/26 02:28:27;;;;;;;2.65;0.82;;;11.70;99.90;;;;;;5112772;28;20118;-67
2022/05/26 02:30:55;;;;;;;4.38;0.90;;;11.60;99.90;;;;;;5112582;28;20035;-67
2022/05/26 02:33:22;;;;;;;5.05;1.10;;;11.60;99.90;;;;;;5094310;28;20023;-67
2022/05/26 02:35:51;;;;;;;1.30;0.80;;;11.60;99.90;;;;;;5112023;28;20031;-67
2022/05/26 02:38:22;;;;;;;5.65;0.70;;;11.50;99.90;;;;;;5112331;28;20040;-67
2022/05/26 02:40:49;;;;;;;2.78;1.10;;;11.50;99.90;;;;;;5112727;28;20035;-67
2022/05/26 02:43:20;;;;;;;4.25;1.15;;;11.50;99.90;;;;;;5112356;28;20046;-67
2022/05/26 02:46:01;;;;;;;6.93;1.02;;;11.50;99.90;;;;;;5112469;28;20115;-66
2022/05/26 02:48:52;;;;;;;6.40;0.93;;;11.50;99.90;;;;;;5112287;28;20142;-67
2022/05/26 02:51:30;;;;;;;5.47;1.00;;;11.40;99.90;;;;;;5110913;28;20031;-67
2022/05/26 02:54:25;;;;;;;1.35;0.85;;;11.40;99.90;;;;;;5111594;28;20054;-67
2022/05/26 02:57:15;;;;;;;1.80;0.75;;;11.40;99.90;;;;;;5038600;28;20120;-66
2022/05/26 02:59:53;;;;;;;5.00;1.10;;;11.40;99.90;;;;;;5112041;28;20097;-67
2022/05/26 03:02:27;;;;;;;4.45;0.77;;;11.40;99.90;;;;;;5111992;28;20032;-67
2022/05/26 03:05:05;;;;;;;2.13;0.80;;;11.30;99.90;;;;;;5111710;28;20472;-67
2022/05/26 03:07:33;;;;;;;3.88;1.48;;;11.30;99.90;;;;;;5111789;28;20035;-67
2022/05/26 03:10:03;;;;;;;4.82;1.20;;;11.40;99.90;;;;;;5111830;28;20047;-67
2022/05/26 03:12:34;;;;;;;2.75;0.95;;;11.40;99.90;;;;;;5111636;28;20496;-66
2022/05/26 03:15:00;;;;;;;6.15;0.88;;;11.40;99.90;;;;;;5111659;28;20024;-67
2022/05/26 03:17:26;;;;;;;8.18;1.52;;;11.40;99.90;;;;;;5093261;28;20119;-67
2022/05/26 03:19:52;;;;;;;1.08;0.68;;;11.50;99.90;;;;;;5110921;28;20032;-67
2022/05/26 03:22:18;;;;;;;4.85;1.00;;;11.50;99.90;;;;;;5108216;28;20023;-67
2022/05/26 03:24:44;;;;;;;5.90;1.13;;;11.40;99.90;;;;;;5108510;28;20034;-66
2022/05/26 03:27:10;;;;;;;3.10;0.88;;;11.40;99.90;;;;;;5107986;28;20027;-67
2022/05/26 03:29:36;;;;;;;4.85;1.25;;;11.40;99.90;;;;;;5108135;28;20044;-67
2022/05/26 03:32:02;;;;;;;3.78;0.80;;;11.40;99.90;;;;;;5110066;28;20046;-66
2022/05/26 03:42:43;;;;;;;6.43;0.95;;;11.20;99.90;;;;;;5111462;28;20130;-67
2022/05/26 03:45:10;;;;;;;4.15;0.98;;;11.30;99.90;;;;;;5111390;28;20437;-67
2022/05/26 03:47:35;;;;;;;2.92;1.55;;;11.30;99.90;;;;;;5111199;28;20375;-66
2022/05/26 03:50:05;;;;;;;5.82;0.93;;;11.30;99.90;;;;;;5110859;28;20032;-67
2022/05/26 03:52:31;;;;;;;3.50;0.70;;;11.30;99.90;;;;;;5110761;28;20089;-67
2022/05/26 03:54:57;;;;;;;4.57;1.38;;;11.30;99.90;;;;;;5110982;28;20428;-67
2022/05/26 03:57:24;;;;;;;2.88;0.90;;;11.30;99.90;;;;;;5092633;28;20070;-66
2022/05/26 03:59:50;;;;;;;4.20;0.70;;;11.20;99.90;;;;;;5110979;28;20066;-66
2022/05/26 04:02:16;;;;;;;3.60;0.75;;;11.20;99.90;;;;;;5111141;28;20073;-67
2022/05/26 04:04:41;;;;;;;4.47;1.35;;;11.20;99.90;;;;;;5110868;28;20063;-66
2022/05/26 04:07:07;;;;;;;6.57;1.00;;;11.20;99.90;;;;;;5110628;28;20023;-66
2022/05/26 04:09:33;;;;;;;3.63;1.02;;;11.20;99.90;;;;;;5110833;28;20024;-66
2022/05/26 04:11:59;;;;;;;5.45;1.05;;;11.20;99.90;;;;;;5110717;28;20036;-67
2022/05/26 04:14:25;;;;;;;6.65;1.20;;;11.20;99.90;;;;;;5110347;28;20020;-67
2022/05/26 04:16:50;;;;;;;4.32;0.98;;;11.20;99.90;;;;;;5108430;28;20445;-67
2022/05/26 04:19:16;;;;;;;4.80;1.63;;;11.20;99.90;;;;;;5107389;28;20039;-68
2022/05/26 04:22:15;;;;;;;2.90;0.90;;;11.20;99.90;;;;;;5109272;28;20108;-68
2022/05/26 04:24:27;;;;;;;4.75;1.38;;;11.20;99.90;;;;;;5110766;28;20031;-67
2022/05/26 04:26:53;;;;;;;3.88;1.13;;;11.10;99.90;;;;;;5110626;28;20020;-67
2022/05/26 04:29:23;;;;;;;4.72;0.98;;;11.20;99.90;;;;;;5110388;28;20043;-67
2022/05/26 04:31:51;;;;;;;3.28;1.30;;;11.20;99.90;;;;;;5108787;28;20027;-68
2022/05/26 04:34:18;;;;;;;1.15;1.05;;;11.20;99.90;;;;;;5107153;28;20083;-68
2022/05/26 04:36:44;;;;;;;4.50;0.90;;;11.20;99.90;;;;;;5106735;28;20102;-68
2022/05/26 04:39:10;;;;;;;3.33;1.10;;;11.40;99.90;;;;;;5110872;28;20042;-68
2022/05/26 04:41:35;;;;;;;6.22;1.33;;;11.40;99.90;;;;;;5114730;28;20387;-67
2022/05/26 04:44:01;;;;;;;1.98;1.05;;;11.40;99.90;;;;;;5114519;28;20081;-68
2022/05/26 04:46:26;;;;;;;1.40;0.65;;;11.50;99.90;;;;;;5114651;28;20015;-68
2022/05/26 04:48:52;;;;;;;7.15;0.95;;;11.60;99.90;;;;;;5114458;28;20167;-68
2022/05/26 04:51:18;;;;;;;5.20;1.05;;;11.60;99.90;;;;;;5114126;28;20020;-68
2022/05/26 04:53:44;;;;;;;1.65;1.40;;;11.60;99.90;;;;;;5114574;28;20582;-68
2022/05/26 04:56:10;;;;;;;8.60;1.33;;;11.70;99.90;;;;;;5114631;28;20192;-68
2022/05/26 04:58:36;;;;;;;8.68;1.20;;;11.80;99.90;;;;;;5114002;28;20039;-68
2022/05/26 05:01:12;;;;;;;2.17;1.58;;;11.80;99.90;;;;;;5112839;28;20026;-67
2022/05/26 05:03:37;;;;;;;1.55;0.70;;;11.90;99.90;;;;;;5110790;28;20059;-68
2022/05/26 05:06:03;;;;;;;2.97;1.33;;;12.00;99.90;;;;;;5110961;28;20078;-67
2022/05/26 05:08:29;;;;;;;7.10;1.30;;;12.10;99.90;;;;;;5110875;28;20030;-68
2022/05/26 05:10:54;;;;;;;2.78;0.88;;;12.20;99.90;;;;;;5110869;28;20060;-68
2022/05/26 05:13:20;;;;;;;1.38;0.80;;;12.30;99.90;;;;;;5111371;28;20380;-68
2022/05/26 05:15:57;;;;;;;3.15;1.05;;;12.40;99.90;;;;;;5110945;28;20434;-68
2022/05/26 05:18:23;;;;;;;3.22;0.82;;;12.50;99.90;;;;;;5113828;28;20076;-68
2022/05/26 05:20:49;;;;;;;4.18;0.98;;;12.60;99.90;;;;;;5112975;28;20027;-67
2022/05/26 05:23:15;;;;;;;1.98;0.93;;;12.70;99.90;;;;;;5110742;28;20519;-68
2022/05/26 05:25:47;;;;;;;7.40;1.85;;;12.70;99.90;;;;;;5111186;28;20031;-68
2022/05/26 05:28:25;;;;;;;3.60;1.00;;;12.90;99.90;;;;;;5113880;28;20056;-68
2022/05/26 05:31:05;;;;;;;4.43;1.40;;;12.90;99.90;;;;;;5113624;28;20126;-68
2022/05/26 05:33:39;;;;;;;6.82;1.73;;;13.00;99.90;;;;;;5113826;28;20479;-68
2022/05/26 05:36:16;;;;;;;3.83;1.17;;;13.10;99.90;;;;;;5113517;28;20028;-68
2022/05/26 05:38:43;;;;;;;6.07;1.52;;;13.20;99.90;;;;;;5113568;28;20667;-68
2022/05/26 05:41:09;;;;;;;5.18;1.65;;;13.20;99.90;;;;;;5113494;28;20032;-68
2022/05/26 05:43:36;;;;;;;6.10;1.33;;;13.30;99.90;;;;;;5113484;28;20028;-68
2022/05/26 05:46:02;;;;;;;4.57;1.10;;;13.30;99.90;;;;;;5111565;28;20475;-68
2022/05/26 05:48:28;;;;;;;4.38;1.52;;;13.30;99.90;;;;;;5110128;28;20437;-68
2022/05/26 05:50:54;;;;;;;3.42;0.80;;;13.40;99.90;;;;;;5109478;28;20482;-68
2022/05/26 05:53:20;;;;;;;5.82;1.17;;;13.50;99.90;;;;;;5109929;28;20076;-68
2022/05/26 05:55:46;;;;;;;4.38;0.90;;;13.70;99.90;;;;;;5111582;28;20035;-68
2022/05/26 05:58:12;;;;;;;3.33;0.88;;;13.80;99.90;;;;;;5110283;28;20043;-67
2022/05/26 06:00:39;;;;;;;7.15;1.63;;;13.90;99.90;;;;;;5109988;28;20019;-68
2022/05/26 06:03:05;;;;;;;1.38;0.82;;;14.00;99.90;;;;;;5110045;28;20076;-67
2022/05/26 06:05:31;;;;;;;6.55;1.05;;;14.30;99.90;;;;;;5109509;28;20491;-68
2022/05/26 06:07:58;;;;;;;6.53;0.77;;;14.50;99.90;;;;;;5111577;28;20075;-66
2022/05/26 06:10:24;;;;;;;6.00;0.90;;;14.80;99.90;;;;;;5112845;28;20026;-66
2022/05/26 06:12:50;;;;;;;3.08;0.98;;;14.90;99.90;;;;;;5112819;28;20031;-68
2022/05/26 06:15:16;;;;;;;4.57;1.05;;;14.90;99.90;;;;;;5110482;28;20019;-66
2022/05/26 06:17:45;;;;;;;7.80;1.05;;;15.00;99.90;;;;;;5109420;28;20376;-68
2022/05/26 06:20:12;;;;;;;2.97;1.35;;;15.20;99.90;;;;;;5110568;28;20027;-66
2022/05/26 06:22:45;;;;;;;1.98;0.73;;;15.40;99.90;;;;;;5112440;28;20503;-66
2022/05/26 06:25:13;;;;;;;3.90;1.20;;;15.40;99.90;;;;;;5109557;28;20177;-66
2022/05/26 06:30:25;;;;;;;4.30;1.15;;;15.40;99.90;;;;;;5110019;28;20059;-66
2022/05/26 06:38:35;;;;;;;2.10;1.05;;;15.40;99.90;;;;;;5112705;28;20042;-66
2022/05/26 06:42:05;;;;;;;2.28;0.70;;;15.50;99.90;;;;;;5112745;28;20085;-68
2022/05/26 06:43:47;;;;;;;5.25;1.08;;;15.50;99.90;;;;;;5112385;28;20063;-68
2022/05/26 06:46:13;;;;;;;1.95;0.80;;;15.60;99.90;;;;;;5112453;28;20020;-66
2022/05/26 06:48:39;;;;;;;3.47;1.30;;;15.60;99.90;;;;;;5112187;28;20035;-66
2022/05/26 06:51:08;;;;;;;3.85;1.00;;;15.60;99.90;;;;;;5112113;28;20111;-66
2022/05/26 06:53:33;;;;;;;5.40;1.08;;;15.60;99.90;;;;;;5112055;28;20023;-66
2022/05/26 06:55:59;;;;;;;4.38;1.10;;;15.70;99.90;;;;;;5112325;28;20035;-67
2022/05/26 06:58:26;;;;;;;12.25;1.63;;;15.70;99.90;;;;;;5111304;28;20035;-67
2022/05/26 07:00:52;;;;;;;3.35;0.98;;;15.60;99.90;;;;;;5111736;28;20120;-66
2022/05/26 07:03:18;;;;;;;1.95;0.77;;;15.70;99.90;;;;;;5089272;28;20019;-66
2022/05/26 07:05:44;;;;;;;3.38;0.80;;;15.70;99.90;;;;;;5108423;28;20239;-67
2022/05/26 07:08:10;;;;;;;1.40;0.82;;;15.70;99.90;;;;;;5110713;28;20126;-67
2022/05/26 07:10:35;;;;;;;4.20;1.33;;;15.60;99.90;;;;;;5111576;28;20443;-67
2022/05/26 07:13:02;;;;;;;4.97;1.25;;;15.50;99.90;;;;;;5111602;28;20038;-67
2022/05/26 07:15:28;;;;;;;4.18;1.60;;;15.60;99.90;;;;;;5111588;28;20398;-67
2022/05/26 07:17:54;;;;;;;2.70;1.10;;;15.70;99.90;;;;;;5111471;28;20027;-68
2022/05/26 07:20:20;;;;;;;3.08;1.48;;;15.70;99.90;;;;;;5111344;28;20395;-68
2022/05/26 07:22:45;;;;;;;1.75;1.30;;;15.80;99.90;;;;;;5111259;28;20039;-67
2022/05/26 07:25:11;;;;;;;5.85;1.38;;;15.80;99.90;;;;;;5111597;28;20044;-67
2022/05/26 07:27:37;;;;;;;5.28;1.50;;;15.90;99.90;;;;;;5111340;28;20057;-67
2022/05/26 07:30:05;;;;;;;6.47;1.33;;;15.90;99.90;;;;;;5111228;28;20043;-67
2022/05/26 07:32:30;;;;;;;1.60;1.13;;;15.90;99.90;;;;;;5111343;28;20118;-65
2022/05/26 07:34:56;;;;;;;1.92;0.93;;;16.00;99.90;;;;;;5110886;28;20102;-62
2022/05/26 07:42:52;;;;;;;4.47;1.27;;;16.30;99.90;;;;;;5111473;28;20038;-67
2022/05/26 07:45:18;;;;;;;1.83;1.10;;;16.50;99.90;;;;;;5111387;28;20028;-67
2022/05/26 07:47:44;;;;;;;7.75;1.23;;;16.70;99.90;;;;;;5111173;28;20031;-67
2022/05/26 07:50:19;;;;;;;1.73;1.30;;;16.80;99.90;;;;;;5092550;28;20024;-67
2022/05/26 07:52:46;;;;;;;4.47;1.67;;;17.00;99.90;;;;;;5111178;28;20027;-67
2022/05/26 07:55:11;;;;;;;3.85;1.13;;;17.00;99.90;;;;;;5110917;28;20405;-66
2022/05/26 07:57:37;;;;;;;3.78;1.23;;;17.00;99.90;;;;;;5110832;28;20529;-66
2022/05/26 08:00:03;;;;;;;2.90;1.67;;;17.00;99.90;;;;;;5110901;28;20028;-66
2022/05/26 08:02:29;;;;;;;5.80;2.00;;;17.00;99.90;;;;;;5110950;28;20102;-67
2022/05/26 08:04:55;;;;;;;3.33;1.58;;;17.00;99.90;;;;;;5110422;28;20111;-66
2022/05/26 08:07:20;;;;;;;4.50;2.00;;;17.10;99.90;;;;;;5110653;28;20222;-66
2022/05/26 08:09:46;;;;;;;4.43;1.90;;;17.20;99.90;;;;;;5110779;28;20032;-67
2022/05/26 08:12:13;;;;;;;6.28;2.30;;;17.30;99.90;;;;;;5110736;28;20107;-67
2022/05/26 08:14:42;;;;;;;2.33;1.70;;;17.40;99.90;;;;;;5110159;28;20483;-65
2022/05/26 08:17:11;;;;;;;7.67;1.63;;;17.50;99.90;;;;;;5107895;28;20024;-66
2022/05/26 08:19:37;;;;;;;3.63;1.38;;;17.70;99.90;;;;;;5107197;28;20035;-67
2022/05/26 08:22:02;;;;;;;6.57;1.80;;;17.80;99.90;;;;;;5107975;28;20019;-67
2022/05/26 08:24:28;;;;;;;6.00;1.85;;;17.90;99.90;;;;;;5107991;28;20392;-64
2022/05/26 08:26:56;;;;;;;2.38;1.52;;;18.30;99.90;;;;;;5107652;28;20050;-66
2022/05/26 08:29:22;;;;;;;3.25;1.67;;;18.60;99.90;;;;;;5107357;28;20564;-65
2022/05/26 08:31:48;;;;;;;2.38;1.30;;;18.60;99.90;;;;;;5107482;28;20027;-66
2022/05/26 08:34:14;;;;;;;3.92;1.80;;;19.20;99.90;;;;;;5107496;28;20060;-67
2022/05/26 08:36:40;;;;;;;1.35;1.10;;;19.90;99.90;;;;;;5107438;28;20024;-66
2022/05/26 08:39:06;;;;;;;2.35;1.20;;;20.00;99.90;;;;;;5107112;28;20062;-66
2022/05/26 08:41:36;;;;;;;5.38;1.38;;;20.10;99.90;;;;;;5107921;28;20146;-65
2022/05/26 08:44:05;;;;;;;3.70;1.02;;;20.00;99.90;;;;;;5104431;28;20023;-65
2022/05/26 08:46:48;;;;;;;2.85;1.40;;;19.50;99.90;;;;;;5097861;28;20464;-67
2022/05/26 08:49:36;;;;;;;3.17;1.25;;;20.30;99.90;;;;;;5103096;28;20032;-67
2022/05/26 08:52:11;;;;;;;2.65;1.30;;;20.60;99.90;;;;;;5086816;28;20024;-66
2022/05/26 08:54:59;;;;;;;3.55;1.30;;;21.10;99.90;;;;;;5086727;28;20116;-67
2022/05/26 08:57:40;;;;;;;1.85;1.10;;;22.10;99.90;;;;;;5091545;28;20072;-66
2022/05/26 09:00:11;;;;;;;3.15;1.45;;;22.00;99.00;;;;;;5107042;28;20039;-66
2022/05/26 09:02:37;;;;;;;2.80;1.25;;;21.60;99.40;;;;;;5107112;28;20088;-66
2022/05/26 09:05:17;;;;;;;1.60;1.10;;;21.20;99.80;;;;;;5106263;28;20495;-66
2022/05/26 09:13:39;;;;;;;3.05;1.70;;;19.60;99.90;;;;;;5086787;28;20585;-66
2022/05/26 09:16:08;;;;;;;3.75;2.63;;;19.90;99.90;;;;;;5086777;28;20077;-66
2022/05/26 09:18:35;;;;;;;2.15;1.40;;;19.90;99.90;;;;;;5087896;28;20396;-66
2022/05/26 09:21:29;;;;;;;4.03;1.63;;;19.60;99.90;;;;;;5106763;28;20099;-66
2022/05/26 09:24:14;;;;;;;3.25;1.65;;;19.70;99.90;;;;;;5103998;28;20036;-66
2022/05/26 09:26:46;;;;;;;2.08;1.52;;;20.60;99.90;;;;;;5109471;28;20027;-66
2022/05/26 09:29:12;;;;;;;1.35;1.23;;;20.90;99.90;;;;;;5110147;28;20086;-66
2022/05/26 09:31:46;;;;;;;4.22;1.40;;;20.90;99.90;;;;;;5110288;28;20055;-65
2022/05/26 09:34:14;;;;;;;2.60;1.33;;;20.90;99.90;;;;;;5110004;28;20023;-67
2022/05/26 09:36:45;;;;;;;4.03;1.40;;;21.80;99.90;;;;;;5109925;28;20023;-66
2022/05/26 09:39:11;;;;;;;;;;;22.30;99.00;;;;;;5091973;28;20039;-65
2022/05/26 09:41:46;;;;;;;2.40;1.45;;;22.10;98.70;;;;;;5110024;28;19903;-65
2022/05/26 09:44:33;;;;;;;4.18;1.10;;;21.60;98.90;;;;;;5109881;28;20024;-65
2022/05/26 09:47:03;;;;;;;1.77;0.77;;;21.50;99.70;;;;;;5109817;28;20426;-65
2022/05/26 09:49:37;;;;;;;0.90;0.73;;;20.90;99.90;;;;;;5110077;28;20085;-66
2022/05/26 09:52:10;;;;;;;1.90;0.98;;;20.60;99.90;;;;;;5109755;28;20023;-66
2022/05/26 09:54:36;;;;;;;2.33;0.70;;;20.30;99.90;;;;;;5109982;28;20031;-66
2022/05/26 09:57:25;;;;;;;3.13;0.90;;;20.30;99.90;;;;;;5109613;28;20502;-66
2022/05/26 09:59:51;;;;;;;1.92;0.80;;;20.10;99.90;;;;;;5109217;28;20089;-67
2022/05/26 10:02:23;;;;;;;3.03;1.08;;;20.10;99.90;;;;;;5109547;28;20024;-66
2022/05/26 10:05:21;;;;;;;2.47;0.90;;;19.60;99.90;;;;;;5109312;28;20111;-66
2022/05/26 10:08:08;;;;;;;4.88;0.98;;;20.00;99.90;;;;;;5109175;28;20036;-66
2022/05/26 10:10:42;;;;;;;1.13;0.50;;;20.90;99.90;;;;;;5109105;28;20020;-66
2022/05/26 10:13:40;;;;;;;2.22;0.77;;;21.20;99.90;;;;;;5090754;28;20122;-66
2022/05/26 10:16:05;;;;;;;4.50;0.75;;;20.40;99.90;;;;;;5109057;28;20422;-66
2022/05/26 10:18:55;;;;;;;3.83;1.00;;;19.80;99.90;;;;;;5109157;28;20487;-66
2022/05/26 10:21:33;;;;;;;3.60;1.13;;;19.30;99.90;;;;;;5109033;28;20042;-66
2022/05/26 10:24:16;;;;;;;3.10;0.45;;;19.20;99.90;;;;;;5109131;28;20769;-66
2022/05/26 10:26:58;;;;;;;2.70;0.80;;;18.90;99.90;;;;;;5109039;28;20023;-66
2022/05/26 10:30:02;;;;;;;2.00;0.50;;;19.00;99.90;;;;;;5090878;28;20120;-66
2022/05/26 10:32:40;;;;;;;3.75;0.75;;;18.90;99.90;;;;;;5109138;28;20016;-66
2022/05/26 10:35:22;;;;;;;1.95;0.65;;;18.80;99.90;;;;;;5108949;28;20042;-66
2022/05/26 10:38:10;;;;;;;4.65;0.82;;;18.90;99.90;;;;;;5090429;28;20508;-66
2022/05/26 10:40:46;;;;;;;2.10;0.68;;;19.00;99.90;;;;;;5108672;28;20491;-66
2022/05/26 10:43:23;;;;;;;3.10;0.75;;;19.40;99.90;;;;;;5109150;28;20028;-67
2022/05/26 10:45:53;;;;;;;5.55;1.10;;;19.10;99.90;;;;;;5090840;28;20028;-66
2022/05/26 10:48:35;;;;;;;1.73;0.55;;;19.40;99.90;;;;;;5108634;28;20094;-66
2022/05/26 10:51:13;;;;;;;4.05;1.13;;;19.40;99.90;;;;;;5108454;28;20052;-66
2022/05/26 10:54:00;;;;;;;2.88;0.70;;;19.40;99.90;;;;;;5108610;28;20028;-66
2022/05/26 10:56:39;;;;;;;3.53;0.82;;;19.50;99.90;;;;;;5108504;28;20036;-66
2022/05/26 10:59:13;;;;;;;3.20;0.60;;;19.80;99.90;;;;;;5108287;28;20032;-66
2022/05/26 11:01:59;;;;;;;3.65;0.80;;;20.10;99.90;;;;;;5108527;28;20028;-65
2022/05/26 11:04:34;;;;;;;3.00;0.52;;;20.40;99.90;;;;;;5108128;28;20137;-67
2022/05/26 11:07:05;;;;;;;2.70;1.00;;;21.50;99.90;;;;;;5108065;28;20043;-66
2022/05/26 11:09:41;;;;;;;1.65;0.52;;;22.50;99.90;;;;;;5107874;28;20487;-66
2022/05/26 11:12:17;;;;;;;2.97;0.80;;;22.30;99.90;;;;;;5107487;28;20084;-66
2022/05/26 11:17:56;;;;;;;3.08;0.50;;;21.70;99.90;;;;;;5108222;28;20034;-66
2022/05/26 11:20:34;;;;;;;4.13;0.50;;;21.50;99.90;;;;;;5107795;28;20110;-66
2022/05/26 11:23:04;;;;;;;4.35;0.90;;;21.10;99.90;;;;;;5107791;28;20020;-67
2022/05/26 11:25:32;;;;;;;2.23;0.73;;;20.90;99.90;;;;;;5108102;28;20475;-67
2022/05/26 11:28:35;;;;;;;4.90;0.80;;;20.80;99.90;;;;;;5107937;28;20256;-67
2022/05/26 11:36:51;;;;;;;6.88;0.63;;;21.10;99.90;;;;;;5107767;28;20043;-67
2022/05/26 11:39:29;;;;;;;2.55;0.80;;;21.10;99.90;;;;;;5107482;28;20044;-67
2022/05/26 11:42:05;;;;;;;3.45;0.60;;;20.40;99.90;;;;;;5108004;28;20032;-67
2022/05/26 11:44:36;;;;;;;3.10;0.60;;;20.80;99.90;;;;;;5108077;28;20030;-68
2022/05/26 11:47:28;;;;;;;5.45;1.05;;;21.10;99.90;;;;;;5107736;28;20110;-67
2022/05/26 11:49:57;;;;;;;2.40;0.70;;;21.30;99.90;;;;;;5107137;28;20032;-66
2022/05/26 11:52:24;;;;;;;5.28;0.98;;;20.60;99.90;;;;;;5107310;28;20030;-67
2022/05/26 11:55:15;;;;;;;3.47;1.13;;;20.10;99.90;;;;;;5107317;28;20032;-66
2022/05/26 11:57:40;;;;;;;1.98;0.57;;;20.30;99.90;;;;;;5078260;28;20054;-67
2022/05/26 12:00:18;;;;;;;4.05;0.60;;;21.10;99.90;;;;;;5107513;28;20422;-67
2022/05/26 12:02:46;;;;;;;2.92;0.50;;;23.10;99.90;;;;;;5107595;28;20019;-67
2022/05/26 12:05:30;;;;;;;3.53;0.75;;;25.90;96.90;;;;;;5107336;28;20027;-67
2022/05/26 12:08:01;;;;;;;3.15;0.50;;;27.70;92.80;;;;;;5107181;28;20019;-67
2022/05/26 12:10:29;;;;;;;4.15;0.73;;;29.60;88.90;;;;;;5106930;28;20031;-67
2022/05/26 12:13:19;;;;;;;6.35;1.05;;;27.40;85.00;;;;;;5106867;28;20030;-67
2022/05/26 12:16:19;;;;;;;4.53;0.90;;;28.00;85.90;;;;;;5107213;28;20034;-66
2022/05/26 12:18:47;;;;;;;3.10;0.93;;;28.30;84.50;;;;;;5106811;28;20118;-66
2022/05/26 12:21:37;;;;;;;2.72;0.80;;;27.90;82.80;;;;;;5106797;28;20019;-67
2022/05/26 12:24:31;;;;;;;6.72;1.95;;;27.00;85.50;;;;;;5095761;28;20035;-66
2022/05/26 12:26:58;;;;;;;4.38;0.70;;;27.60;85.30;;;;;;5107483;28;20092;-66
2022/05/26 12:29:48;;;;;;;3.80;0.60;;;27.10;85.70;;;;;;5106967;28;20036;-66
2022/05/26 12:32:18;;;;;;;5.32;0.65;;;26.10;84.80;;;;;;5107231;28;20553;-66
2022/05/26 12:35:29;;;;;;;1.30;0.68;;;26.30;89.00;;;;;;5107216;28;20028;-67
2022/05/26 12:38:42;;;;;;;0.80;0.32;;;25.90;88.30;;;;;;5086263;28;20573;-67
2022/05/26 12:41:17;;;;;;;3.03;1.02;;;25.80;90.70;;;;;;5106709;28;20390;-66
2022/05/26 12:43:55;;;;;;;3.10;0.80;;;26.00;91.60;;;;;;5107241;28;20024;-66
2022/05/26 12:46:39;;;;;;;1.50;0.50;;;25.60;90.70;;;;;;5110077;28;20027;-66
2022/05/26 12:49:38;;;;;;;0.90;0.50;;;23.90;92.20;;;;;;5110363;28;20032;-65
2022/05/26 12:52:21;;;;;;;5.88;0.75;;;22.90;95.70;;;;;;5110237;28;20506;-66
2022/05/26 12:55:10;;;;;;;6.22;1.02;;;22.50;97.50;;;;;;5110147;28;20055;-66
2022/05/26 12:57:40;;;;;;;6.13;1.40;;;22.50;98.90;;;;;;5110464;28;20058;-66
2022/05/26 13:00:24;;;;;;;4.15;0.80;;;22.20;98.60;;;;;;5092172;28;20036;-65
2022/05/26 13:02:57;;;;;;;2.47;1.23;;;21.90;99.10;;;;;;5113990;28;20418;-66
2022/05/26 13:05:27;;;;;;;4.32;0.50;;;21.70;99.70;;;;;;5113814;28;20024;-68
2022/05/26 13:07:54;;;;;;;3.80;0.70;;;21.60;99.90;;;;;;5113834;28;20530;-65
2022/05/26 13:10:27;;;;;;;2.70;0.70;;;21.60;99.90;;;;;;5114385;28;20063;-66
2022/05/26 13:12:53;;;;;;;5.97;0.63;;;21.70;99.90;;;;;;5112583;28;20024;-66
2022/05/26 13:15:25;;;;;;;2.00;0.50;;;22.00;99.90;;;;;;5110729;28;20043;-66
2022/05/26 13:17:52;;;;;;;4.57;0.68;;;21.80;99.90;;;;;;5110378;28;20031;-67
2022/05/26 13:20:30;;;;;;;2.55;0.90;;;20.90;99.90;;;;;;5110380;28;20032;-66
2022/05/26 13:22:56;;;;;;;1.27;0.52;;;20.60;99.90;;;;;;5110080;28;20487;-66
2022/05/26 13:25:33;;;;;;;1.77;0.68;;;20.40;99.90;;;;;;5110632;27;20368;-66
2022/05/26 13:28:03;;;;;;;2.20;0.43;;;20.50;99.90;;;;;;5110683;28;20110;-66
2022/05/26 13:33:48;;;;;;;5.13;0.95;;;21.10;99.90;;;;;;5109974;28;20536;-66
2022/05/26 13:36:42;;;;;;;4.45;0.95;;;21.10;99.90;;;;;;5109703;28;20063;-66
2022/05/26 13:39:11;;;;;;;8.75;1.60;;;21.50;99.90;;;;;;5107586;28;20039;-66
2022/05/26 13:41:38;;;;;;;7.03;1.42;;;21.50;99.90;;;;;;5110395;28;20016;-66
2022/05/26 13:44:11;;;;;;;6.45;0.85;;;21.30;99.90;;;;;;5107384;28;20039;-66
2022/05/26 13:46:45;;;;;;;6.75;0.68;;;21.10;99.90;;;;;;5109993;28;20030;-65
2022/05/26 13:49:29;;;;;;;2.78;0.80;;;20.40;99.90;;;;;;5109787;28;20023;-65
2022/05/26 13:51:55;;;;;;;7.35;1.05;;;20.70;99.90;;;;;;5109270;28;20040;-66
2022/05/26 13:54:41;;;;;;;5.57;1.00;;;21.40;99.90;;;;;;5109105;28;20476;-67
2022/05/26 13:57:16;;;;;;;1.73;0.45;;;21.30;99.90;;;;;;5089618;28;20016;-67